ACA1025 KMCO-KFLL
Flight info
| Callsign | ACA1025 |
|---|---|
| Flight time | 0h 39m |
| Altitude | 27000 |
| Route | DDANY3 JIPOD CUUDA3 |
| Aircraft | A320/M-SDE3FGHIRWY/LB1 |
Departure
| Time | 2026-04-24 23:58 |
|---|---|
| Airport | Orlando International Airport (KMCO) |
Arrival
| Time | 2026-04-25 00:38 |
|---|---|
| Airport | Fort Lauderdale Hollywood International Airport (KFLL) |
| Time | Latitude | Longitude | Altitude | Speed | Heading |
|---|---|---|---|---|---|
| 2026-04-24 23:26 | 28.43350 | -81.30062 | 101 ft | 0 kts | 13° |
| 2026-04-24 23:50 | 28.43336 | -81.30064 | 100 ft | 4 kts | 8° |
| 2026-04-24 23:51 | 28.43310 | -81.30071 | 100 ft | 4 kts | 28° |
| 2026-04-24 23:51 | 28.43292 | -81.30089 | 101 ft | 4 kts | 76° |
| 2026-04-24 23:51 | 28.43293 | -81.30109 | 101 ft | 1 kts | 111° |
| 2026-04-24 23:51 | 28.43294 | -81.30112 | 98 ft | 0 kts | 111° |
| 2026-04-24 23:54 | 28.43292 | -81.30108 | 101 ft | 3 kts | 111° |
| 2026-04-24 23:54 | 28.43279 | -81.30052 | 99 ft | 12 kts | 96° |
| 2026-04-24 23:55 | 28.43305 | -81.29939 | 101 ft | 17 kts | 66° |
| 2026-04-24 23:55 | 28.43334 | -81.29811 | 103 ft | 16 kts | 81° |
| 2026-04-24 23:55 | 28.43362 | -81.29719 | 106 ft | 11 kts | 34° |
| 2026-04-24 23:55 | 28.43435 | -81.29711 | 105 ft | 11 kts | 358° |
| 2026-04-24 23:56 | 28.43512 | -81.29712 | 104 ft | 11 kts | 2° |
| 2026-04-24 23:56 | 28.43546 | -81.29688 | 103 ft | 0 kts | 61° |
| 2026-04-24 23:56 | 28.43549 | -81.29672 | 103 ft | 4 kts | 80° |
| 2026-04-24 23:57 | 28.43550 | -81.29628 | 104 ft | 9 kts | 99° |
| 2026-04-24 23:57 | 28.43497 | -81.29588 | 104 ft | 10 kts | 170° |
| 2026-04-24 23:57 | 28.43420 | -81.29587 | 107 ft | 16 kts | 179° |
| 2026-04-24 23:57 | 28.43096 | -81.29583 | 106 ft | 83 kts | 179° |
| 2026-04-24 23:58 | 28.42299 | -81.29574 | 101 ft | 143 kts | 179° |
| 2026-04-24 23:58 | 28.41228 | -81.29528 | 497 ft | 158 kts | 176° |
| 2026-04-24 23:58 | 28.40103 | -81.29492 | 1003 ft | 165 kts | 175° |
| 2026-04-24 23:58 | 28.38930 | -81.29430 | 1559 ft | 170 kts | 174° |
| 2026-04-24 23:59 | 28.37765 | -81.29074 | 2039 ft | 185 kts | 147° |
| 2026-04-24 23:59 | 28.36680 | -81.28142 | 2352 ft | 209 kts | 140° |
| 2026-04-24 23:59 | 28.35427 | -81.27129 | 2802 ft | 233 kts | 146° |
| 2026-04-24 23:59 | 28.34155 | -81.25857 | 3380 ft | 253 kts | 135° |
| 2026-04-25 00:00 | 28.32904 | -81.24370 | 4097 ft | 267 kts | 135° |
| 2026-04-25 00:00 | 28.31734 | -81.22684 | 4876 ft | 280 kts | 117° |
| 2026-04-25 00:00 | 28.31213 | -81.20535 | 5715 ft | 287 kts | 96° |
| 2026-04-25 00:00 | 28.31003 | -81.18260 | 6562 ft | 294 kts | 96° |
| 2026-04-25 00:01 | 28.30793 | -81.15948 | 6869 ft | 295 kts | 95° |
| 2026-04-25 00:01 | 28.30582 | -81.13638 | 6984 ft | 295 kts | 95° |
| 2026-04-25 00:01 | 28.30367 | -81.11330 | 7010 ft | 293 kts | 95° |
| 2026-04-25 00:01 | 28.30149 | -81.09031 | 7013 ft | 293 kts | 96° |
| 2026-04-25 00:02 | 28.29928 | -81.06735 | 7013 ft | 293 kts | 96° |
| 2026-04-25 00:02 | 28.29707 | -81.04430 | 7012 ft | 294 kts | 96° |
| 2026-04-25 00:02 | 28.29488 | -81.02125 | 7011 ft | 294 kts | 96° |
| 2026-04-25 00:02 | 28.29268 | -80.99822 | 7012 ft | 293 kts | 96° |
| 2026-04-25 00:03 | 28.29046 | -80.97518 | 7012 ft | 294 kts | 96° |
| 2026-04-25 00:03 | 28.28824 | -80.95218 | 7012 ft | 294 kts | 96° |
| 2026-04-25 00:03 | 28.28603 | -80.92916 | 7012 ft | 293 kts | 96° |
| 2026-04-25 00:03 | 28.28382 | -80.90616 | 7009 ft | 293 kts | 95° |
| 2026-04-25 00:04 | 28.28160 | -80.88315 | 7007 ft | 294 kts | 96° |
| 2026-04-25 00:04 | 28.27782 | -80.86036 | 7008 ft | 295 kts | 104° |
| 2026-04-25 00:04 | 28.27123 | -80.83835 | 7011 ft | 294 kts | 112° |
| 2026-04-25 00:04 | 28.26343 | -80.81688 | 7006 ft | 295 kts | 112° |
| 2026-04-25 00:05 | 28.25566 | -80.79543 | 7009 ft | 294 kts | 112° |
| 2026-04-25 00:05 | 28.24782 | -80.77372 | 7555 ft | 299 kts | 112° |
| 2026-04-25 00:05 | 28.23997 | -80.75187 | 8535 ft | 300 kts | 111° |
| 2026-04-25 00:05 | 28.23474 | -80.73731 | 9150 ft | 302 kts | 111° |
| 2026-04-25 00:06 | 28.22675 | -80.71507 | 10031 ft | 306 kts | 111° |
| 2026-04-25 00:06 | 28.21844 | -80.69199 | 10448 ft | 328 kts | 111° |
| 2026-04-25 00:06 | 28.20952 | -80.66720 | 10733 ft | 351 kts | 111° |
| 2026-04-25 00:06 | 28.20052 | -80.64104 | 11347 ft | 360 kts | 110° |
| 2026-04-25 00:07 | 28.19169 | -80.61430 | 12079 ft | 365 kts | 110° |
| 2026-04-25 00:07 | 28.18001 | -80.57828 | 13097 ft | 371 kts | 110° |
| 2026-04-25 00:07 | 28.17400 | -80.55967 | 13590 ft | 374 kts | 110° |
| 2026-04-25 00:07 | 28.16496 | -80.53187 | 14283 ft | 378 kts | 110° |
| 2026-04-25 00:08 | 28.15575 | -80.50376 | 14923 ft | 383 kts | 110° |
| 2026-04-25 00:08 | 28.14637 | -80.47534 | 15578 ft | 387 kts | 110° |
| 2026-04-25 00:08 | 28.13683 | -80.44662 | 16224 ft | 392 kts | 110° |
| 2026-04-25 00:08 | 28.12715 | -80.41759 | 16862 ft | 396 kts | 110° |
| 2026-04-25 00:09 | 28.11735 | -80.38826 | 17521 ft | 400 kts | 111° |
| 2026-04-25 00:09 | 28.10428 | -80.36029 | 18123 ft | 405 kts | 127° |
| 2026-04-25 00:09 | 28.08470 | -80.33731 | 18671 ft | 408 kts | 144° |
| 2026-04-25 00:09 | 28.05994 | -80.32184 | 19224 ft | 408 kts | 163° |
| 2026-04-25 00:10 | 28.03248 | -80.31396 | 19806 ft | 408 kts | 170° |
| 2026-04-25 00:10 | 28.00463 | -80.30722 | 20408 ft | 410 kts | 171° |
| 2026-04-25 00:10 | 27.97661 | -80.30059 | 21002 ft | 413 kts | 171° |
| 2026-04-25 00:10 | 27.94839 | -80.29395 | 21589 ft | 416 kts | 171° |
| 2026-04-25 00:11 | 27.91996 | -80.28723 | 22144 ft | 419 kts | 171° |
| 2026-04-25 00:11 | 27.89134 | -80.28041 | 22702 ft | 422 kts | 171° |
| 2026-04-25 00:11 | 27.86251 | -80.27350 | 23235 ft | 425 kts | 171° |
| 2026-04-25 00:11 | 27.83351 | -80.26652 | 23724 ft | 428 kts | 171° |
| 2026-04-25 00:12 | 27.80425 | -80.25946 | 24140 ft | 431 kts | 171° |
| 2026-04-25 00:12 | 27.77482 | -80.25233 | 24551 ft | 434 kts | 171° |
| 2026-04-25 00:12 | 27.74556 | -80.24527 | 24882 ft | 437 kts | 171° |
| 2026-04-25 00:12 | 27.71584 | -80.23815 | 24969 ft | 436 kts | 171° |
| 2026-04-25 00:13 | 27.68582 | -80.23100 | 24996 ft | 434 kts | 171° |
| 2026-04-25 00:13 | 27.65669 | -80.22404 | 24996 ft | 434 kts | 171° |
| 2026-04-25 00:13 | 27.62672 | -80.21684 | 24995 ft | 434 kts | 171° |
| 2026-04-25 00:13 | 27.59761 | -80.20985 | 24989 ft | 434 kts | 171° |
| 2026-04-25 00:14 | 27.56811 | -80.20278 | 24990 ft | 434 kts | 171° |
| 2026-04-25 00:14 | 27.53858 | -80.19572 | 24989 ft | 434 kts | 171° |
| 2026-04-25 00:14 | 27.50908 | -80.18866 | 24989 ft | 433 kts | 171° |
| 2026-04-25 00:14 | 27.47958 | -80.18159 | 24989 ft | 433 kts | 171° |
| 2026-04-25 00:15 | 27.45007 | -80.17455 | 24988 ft | 433 kts | 171° |
| 2026-04-25 00:15 | 27.42058 | -80.16754 | 24982 ft | 433 kts | 171° |
| 2026-04-25 00:15 | 27.39107 | -80.16055 | 24990 ft | 433 kts | 171° |
| 2026-04-25 00:15 | 27.36160 | -80.15355 | 24987 ft | 433 kts | 171° |
| 2026-04-25 00:16 | 27.33218 | -80.14656 | 24983 ft | 432 kts | 171° |
| 2026-04-25 00:16 | 27.30274 | -80.13956 | 24980 ft | 432 kts | 171° |
| 2026-04-25 00:16 | 27.27331 | -80.13255 | 24968 ft | 433 kts | 171° |
| 2026-04-25 00:16 | 27.24384 | -80.12551 | 24743 ft | 433 kts | 171° |
| 2026-04-25 00:17 | 27.21434 | -80.11846 | 23537 ft | 434 kts | 171° |
| 2026-04-25 00:17 | 27.18492 | -80.11146 | 22362 ft | 429 kts | 171° |
| 2026-04-25 00:17 | 27.15633 | -80.10464 | 22034 ft | 414 kts | 171° |
| 2026-04-25 00:17 | 27.12830 | -80.09800 | 21537 ft | 410 kts | 171° |
| 2026-04-25 00:18 | 27.10052 | -80.09144 | 21040 ft | 406 kts | 171° |
| 2026-04-25 00:18 | 27.07302 | -80.08491 | 20551 ft | 402 kts | 171° |
| 2026-04-25 00:18 | 27.04573 | -80.07844 | 20041 ft | 400 kts | 171° |
| 2026-04-25 00:18 | 27.01861 | -80.07201 | 19542 ft | 397 kts | 171° |
| 2026-04-25 00:19 | 26.99162 | -80.06565 | 19015 ft | 395 kts | 171° |
| 2026-04-25 00:19 | 26.96476 | -80.05932 | 18506 ft | 394 kts | 171° |
| 2026-04-25 00:19 | 26.93799 | -80.05301 | 17937 ft | 393 kts | 171° |
| 2026-04-25 00:19 | 26.91133 | -80.04671 | 17419 ft | 389 kts | 171° |
| 2026-04-25 00:20 | 26.88493 | -80.04049 | 16894 ft | 386 kts | 171° |
| 2026-04-25 00:20 | 26.85870 | -80.03433 | 16364 ft | 384 kts | 171° |
| 2026-04-25 00:20 | 26.83266 | -80.02821 | 15845 ft | 382 kts | 171° |
| 2026-04-25 00:20 | 26.80677 | -80.02210 | 15324 ft | 379 kts | 171° |
| 2026-04-25 00:21 | 26.78097 | -80.01600 | 14813 ft | 377 kts | 171° |
| 2026-04-25 00:21 | 26.75536 | -80.00989 | 14295 ft | 376 kts | 170° |
| 2026-04-25 00:21 | 26.72986 | -80.00381 | 13782 ft | 374 kts | 170° |
| 2026-04-25 00:21 | 26.70450 | -79.99778 | 13211 ft | 372 kts | 170° |
| 2026-04-25 00:22 | 26.67926 | -79.99184 | 12651 ft | 369 kts | 170° |
| 2026-04-25 00:22 | 26.65421 | -79.98597 | 12133 ft | 366 kts | 170° |
| 2026-04-25 00:22 | 26.62949 | -79.98018 | 11668 ft | 361 kts | 170° |
| 2026-04-25 00:22 | 26.60503 | -79.97443 | 11137 ft | 358 kts | 170° |
| 2026-04-25 00:23 | 26.58069 | -79.96871 | 10604 ft | 356 kts | 170° |
| 2026-04-25 00:23 | 26.55676 | -79.96311 | 10398 ft | 344 kts | 170° |
| 2026-04-25 00:23 | 26.53384 | -79.95774 | 10284 ft | 330 kts | 170° |
| 2026-04-25 00:23 | 26.51182 | -79.95256 | 10152 ft | 317 kts | 169° |
| 2026-04-25 00:24 | 26.49087 | -79.94765 | 9996 ft | 307 kts | 169° |
| 2026-04-25 00:24 | 26.47016 | -79.94283 | 9668 ft | 301 kts | 169° |
| 2026-04-25 00:24 | 26.44961 | -79.93807 | 9276 ft | 301 kts | 169° |
| 2026-04-25 00:24 | 26.42891 | -79.93328 | 8880 ft | 299 kts | 169° |
| 2026-04-25 00:25 | 26.40885 | -79.92873 | 8481 ft | 297 kts | 172° |
| 2026-04-25 00:25 | 26.38842 | -79.92801 | 8103 ft | 292 kts | 188° |
| 2026-04-25 00:25 | 26.36899 | -79.93321 | 8007 ft | 286 kts | 203° |
| 2026-04-25 00:25 | 26.35135 | -79.94329 | 8018 ft | 286 kts | 212° |
| 2026-04-25 00:26 | 26.33413 | -79.95440 | 8016 ft | 286 kts | 211° |
| 2026-04-25 00:26 | 26.31688 | -79.96546 | 8017 ft | 286 kts | 211° |
| 2026-04-25 00:26 | 26.29967 | -79.97647 | 7918 ft | 284 kts | 211° |
| 2026-04-25 00:26 | 26.28258 | -79.98739 | 7503 ft | 283 kts | 211° |
| 2026-04-25 00:27 | 26.26555 | -79.99827 | 7103 ft | 281 kts | 212° |
| 2026-04-25 00:27 | 26.24864 | -80.00910 | 6709 ft | 280 kts | 211° |
| 2026-04-25 00:27 | 26.23184 | -80.01988 | 6310 ft | 278 kts | 211° |
| 2026-04-25 00:27 | 26.21517 | -80.03060 | 6031 ft | 275 kts | 212° |
| 2026-04-25 00:28 | 26.19866 | -80.04153 | 6004 ft | 277 kts | 216° |
| 2026-04-25 00:28 | 26.18453 | -80.05591 | 6012 ft | 275 kts | 232° |
| 2026-04-25 00:28 | 26.17445 | -80.07385 | 6016 ft | 273 kts | 248° |
| 2026-04-25 00:28 | 26.16814 | -80.09330 | 5756 ft | 270 kts | 253° |
| 2026-04-25 00:29 | 26.16211 | -80.11333 | 5300 ft | 269 kts | 253° |
| 2026-04-25 00:29 | 26.15617 | -80.13306 | 4856 ft | 269 kts | 252° |
| 2026-04-25 00:29 | 26.15116 | -80.15275 | 4418 ft | 268 kts | 261° |
| 2026-04-25 00:29 | 26.15021 | -80.17334 | 3980 ft | 266 kts | 271° |
| 2026-04-25 00:30 | 26.15041 | -80.19391 | 3541 ft | 266 kts | 270° |
| 2026-04-25 00:30 | 26.15054 | -80.21444 | 3117 ft | 265 kts | 270° |
| 2026-04-25 00:30 | 26.15062 | -80.23491 | 2996 ft | 265 kts | 270° |
| 2026-04-25 00:30 | 26.15070 | -80.25537 | 3003 ft | 260 kts | 270° |
| 2026-04-25 00:31 | 26.15089 | -80.27473 | 3003 ft | 241 kts | 270° |
| 2026-04-25 00:31 | 26.15108 | -80.29271 | 3001 ft | 224 kts | 270° |
| 2026-04-25 00:31 | 26.15112 | -80.30938 | 3000 ft | 207 kts | 269° |
| 2026-04-25 00:31 | 26.15104 | -80.32482 | 3025 ft | 195 kts | 269° |
| 2026-04-25 00:32 | 26.15090 | -80.33989 | 2971 ft | 194 kts | 269° |
| 2026-04-25 00:32 | 26.15069 | -80.35518 | 2835 ft | 196 kts | 268° |
| 2026-04-25 00:32 | 26.15044 | -80.37024 | 2708 ft | 194 kts | 266° |
| 2026-04-25 00:32 | 26.14651 | -80.38414 | 2561 ft | 188 kts | 230° |
| 2026-04-25 00:33 | 26.13622 | -80.39187 | 2243 ft | 182 kts | 191° |
| 2026-04-25 00:33 | 26.12414 | -80.38997 | 2019 ft | 177 kts | 147° |
| 2026-04-25 00:33 | 26.11555 | -80.38023 | 2008 ft | 178 kts | 126° |
| 2026-04-25 00:33 | 26.10849 | -80.36880 | 2007 ft | 180 kts | 123° |
| 2026-04-25 00:34 | 26.10158 | -80.35705 | 2005 ft | 183 kts | 123° |
| 2026-04-25 00:34 | 26.09471 | -80.34527 | 2006 ft | 181 kts | 122° |
| 2026-04-25 00:34 | 26.08789 | -80.33354 | 2005 ft | 181 kts | 122° |
| 2026-04-25 00:34 | 26.08110 | -80.32172 | 2009 ft | 182 kts | 119° |
| 2026-04-25 00:35 | 26.07763 | -80.30831 | 2008 ft | 184 kts | 93° |
| 2026-04-25 00:35 | 26.07753 | -80.29398 | 2013 ft | 186 kts | 91° |
| 2026-04-25 00:35 | 26.07750 | -80.27954 | 1974 ft | 188 kts | 91° |
| 2026-04-25 00:35 | 26.07744 | -80.26502 | 1746 ft | 188 kts | 92° |
| 2026-04-25 00:36 | 26.07738 | -80.25061 | 1503 ft | 187 kts | 91° |
| 2026-04-25 00:36 | 26.07731 | -80.23622 | 1262 ft | 185 kts | 91° |
| 2026-04-25 00:36 | 26.07724 | -80.22213 | 1040 ft | 178 kts | 91° |
| 2026-04-25 00:36 | 26.07717 | -80.20906 | 811 ft | 163 kts | 90° |
| 2026-04-25 00:37 | 26.07710 | -80.19662 | 618 ft | 159 kts | 92° |
| 2026-04-25 00:37 | 26.07698 | -80.18438 | 408 ft | 159 kts | 91° |
| 2026-04-25 00:37 | 26.07698 | -80.17222 | 210 ft | 156 kts | 91° |
| 2026-04-25 00:37 | 26.07690 | -80.16033 | 32 ft | 152 kts | 92° |
| 2026-04-25 00:38 | 26.07671 | -80.15037 | 16 ft | 101 kts | 90° |
| 2026-04-25 00:38 | 26.07676 | -80.14544 | 19 ft | 34 kts | 92° |
| 2026-04-25 00:38 | 26.07617 | -80.14392 | 19 ft | 0 kts | 118° |
| 2026-04-25 00:38 | 26.07615 | -80.14387 | 19 ft | 3 kts | 118° |
| 2026-04-25 00:39 | 26.07576 | -80.14308 | 17 ft | 20 kts | 118° |
| 2026-04-25 00:39 | 26.07551 | -80.14132 | 17 ft | 24 kts | 94° |
| 2026-04-25 00:39 | 26.07500 | -80.13990 | 16 ft | 7 kts | 179° |
| 2026-04-25 00:39 | 26.07498 | -80.13991 | 16 ft | 0 kts | 188° |
| 2026-04-25 00:40 | 26.07473 | -80.14007 | 16 ft | 12 kts | 235° |
| 2026-04-25 00:40 | 26.07483 | -80.14160 | 16 ft | 23 kts | 252° |
| 2026-04-25 00:40 | 26.07391 | -80.14190 | 16 ft | 11 kts | 184° |
| 2026-04-25 00:40 | 26.07347 | -80.14214 | 16 ft | 6 kts | 240° |
| 2026-04-25 00:41 | 26.07344 | -80.14228 | 16 ft | 0 kts | 263° |
| 2026-04-25 00:41 | 26.07343 | -80.14238 | 16 ft | 2 kts | 268° |
| 2026-04-25 00:41 | 26.07343 | -80.14248 | 16 ft | 1 kts | 269° |
| 2026-04-25 00:41 | 26.07343 | -80.14255 | 16 ft | 1 kts | 269° |